Palisades, Idaho
Current Conditions -  °F | °C
As of 10:56 AM on Thursday 30 Oct 2014 (Local Time) from KDIJ Reporting Station
Scattered Clouds Scattered Clouds  
Wind Chill: 50°   Ceiling: Unl
Heat Index: 50°   Visibility: 10mi
Dew Point: 28°   Wind: 5mph
Humidity: 43%   Direction: 120°ESE
Pressure: 30.35"   Gusts: NA
Location:  43.4056°N, 111.297°W
Report Text: KDIJ 301656Z AUTO 12004KT 10SM SCT085 10/M02 A3035 RMK AO2 T01001022 SLP244
Loading
Personal Weather Stations






























Interactive Weather Map
Tropical Storm Tracking
New forecast layout! Learn more

10-Day Weather Forecast

Advertisements
Track Severe Weather on mobile